createdAt,value
2023-05-19T00:01:00.288Z,103014.44
2023-05-19T00:03:27.244Z,103011.78
2023-05-19T00:05:54.326Z,103007.31
2023-05-19T00:08:24.491Z,103019.34
2023-05-19T00:10:51.396Z,103016.34
2023-05-19T00:13:18.360Z,103009.38
2023-05-19T00:15:45.193Z,103013.94
2023-05-19T00:18:14.172Z,103005.38
2023-05-19T00:20:41.361Z,102995.41
2023-05-19T00:23:08.131Z,102997.31
2023-05-19T00:25:34.779Z,103005.50
2023-05-19T00:28:02.471Z,102998.03
2023-05-19T00:30:32.434Z,102996.09
2023-05-19T00:32:59.166Z,102999.97
2023-05-19T00:35:26.048Z,102992.13
2023-05-19T00:37:52.553Z,102991.00
2023-05-19T00:40:19.316Z,102994.38
2023-05-19T00:42:45.847Z,103000.63
2023-05-19T00:45:12.451Z,102991.22
2023-05-19T00:47:39.469Z,102998.44
2023-05-19T00:50:06.374Z,102990.50
2023-05-19T00:52:32.998Z,103001.34
2023-05-19T00:54:59.786Z,102997.09
2023-05-19T00:57:27.146Z,102985.91
2023-05-19T00:59:54.084Z,102983.00
2023-05-19T01:02:21.545Z,102992.41
2023-05-19T01:04:48.202Z,102986.84
2023-05-19T01:07:15.307Z,102986.84
2023-05-19T01:09:41.997Z,102989.72
2023-05-19T01:12:08.936Z,102989.81
2023-05-19T01:14:35.759Z,102988.59
2023-05-19T01:17:15.839Z,102987.66
2023-05-19T01:19:56.387Z,102995.25
2023-05-19T01:22:42.923Z,102997.03
2023-05-19T01:25:43.511Z,102996.44
2023-05-19T01:28:20.471Z,102986.41
2023-05-19T01:30:54.813Z,102988.00
2023-05-19T01:33:23.349Z,102986.19
2023-05-19T01:35:51.005Z,102986.31
2023-05-19T01:38:19.257Z,102983.03
2023-05-19T01:40:49.345Z,102980.41
2023-05-19T01:43:20.335Z,102976.94
2023-05-19T01:45:48.140Z,102972.81
2023-05-19T01:48:15.373Z,102975.69
2023-05-19T01:50:42.420Z,102974.97
2023-05-19T01:53:09.103Z,102973.19
2023-05-19T01:55:43.380Z,102981.44
2023-05-19T01:58:21.293Z,102966.16
2023-05-19T02:01:16.591Z,102969.53
2023-05-19T02:04:11.173Z,102965.31
2023-05-19T02:06:47.613Z,102968.41
2023-05-19T02:09:30.363Z,102967.69
2023-05-19T02:12:11.082Z,102966.94
2023-05-19T02:14:45.479Z,102966.22
2023-05-19T02:17:16.507Z,102972.72
2023-05-19T02:19:43.645Z,102966.84
2023-05-19T02:22:10.469Z,102974.66
2023-05-19T02:24:37.681Z,102967.06
2023-05-19T02:27:04.429Z,102958.97
2023-05-19T02:29:31.039Z,102960.66
2023-05-19T02:31:57.609Z,102961.59
2023-05-19T02:34:24.103Z,102951.47
2023-05-19T02:36:50.665Z,102954.84
2023-05-19T02:39:17.259Z,102956.78
2023-05-19T02:41:43.834Z,102955.31
2023-05-19T02:44:10.379Z,102939.69
2023-05-19T02:46:36.938Z,102949.78
2023-05-19T02:49:03.540Z,102952.44
2023-05-19T02:51:30.083Z,102946.41
2023-05-19T02:53:56.753Z,102942.22
2023-05-19T02:56:23.246Z,102944.22
2023-05-19T02:58:49.728Z,102936.06
2023-05-19T03:01:16.636Z,102929.34
2023-05-19T03:03:43.371Z,102939.69
2023-05-19T03:06:09.896Z,102925.88
2023-05-19T03:08:36.446Z,102934.38
2023-05-19T03:11:03.660Z,102930.91
2023-05-19T03:13:30.243Z,102921.53
2023-05-19T03:15:59.159Z,102928.72
2023-05-19T03:18:26.634Z,102925.22
2023-05-19T03:20:56.526Z,102929.69
2023-05-19T03:23:23.092Z,102929.78
2023-05-19T03:25:49.748Z,102926.13
2023-05-19T03:28:17.213Z,102931.19
2023-05-19T03:30:43.833Z,102929.41
2023-05-19T03:33:10.469Z,102930.22
2023-05-19T03:35:37.183Z,102934.03
2023-05-19T03:38:03.761Z,102928.03
2023-05-19T03:40:30.405Z,102924.66
2023-05-19T03:42:57.145Z,102932.34
2023-05-19T03:45:23.629Z,102920.09
2023-05-19T03:47:50.257Z,102920.09
2023-05-19T03:50:16.837Z,102920.31
2023-05-19T03:52:46.523Z,102919.38
2023-05-19T03:55:14.676Z,102924.44
2023-05-19T03:57:41.577Z,102928.91
2023-05-19T04:00:09.117Z,102920.97
2023-05-19T04:02:35.728Z,102925.59
2023-05-19T04:05:04.858Z,102934.19
2023-05-19T04:07:31.765Z,102925.59
2023-05-19T04:09:58.270Z,102925.53
2023-05-19T04:12:24.793Z,102927.31
2023-05-19T04:14:51.317Z,102928.97
2023-05-19T04:17:18.001Z,102933.31
2023-05-19T04:19:44.571Z,102929.84
2023-05-19T04:22:11.080Z,102934.56
2023-05-19T04:24:37.596Z,102930.88
2023-05-19T04:27:04.849Z,102935.06
2023-05-19T04:29:32.612Z,102937.16
2023-05-19T04:31:59.115Z,102935.13
2023-05-19T04:34:25.621Z,102931.44
2023-05-19T04:36:53.502Z,102937.81
2023-05-19T04:39:21.464Z,102930.63
2023-05-19T04:41:48.262Z,102928.19
2023-05-19T04:44:18.185Z,102942.88
2023-05-19T04:46:45.304Z,102941.09
2023-05-19T04:49:14.705Z,102938.09
2023-05-19T04:51:41.592Z,102938.88
2023-05-19T04:54:08.504Z,102936.50
2023-05-19T04:56:35.001Z,102943.75
2023-05-19T04:59:01.564Z,102941.72
2023-05-19T05:01:28.233Z,102943.13
2023-05-19T05:03:59.059Z,102944.25
2023-05-19T05:06:26.453Z,102942.69
2023-05-19T05:08:53.093Z,102948.47
2023-05-19T05:11:19.939Z,102934.91
2023-05-19T05:13:46.733Z,102937.44
2023-05-19T05:16:14.343Z,102948.41
2023-05-19T05:18:44.306Z,102951.69
2023-05-19T05:21:12.245Z,102939.56
2023-05-19T05:23:39.049Z,102941.25
2023-05-19T05:26:12.964Z,102942.69
2023-05-19T05:28:39.481Z,102943.16
2023-05-19T05:31:06.128Z,102943.41
2023-05-19T05:33:32.734Z,102932.81
2023-05-19T05:35:59.252Z,102942.06
2023-05-19T05:38:25.924Z,102946.41
2023-05-19T05:40:52.673Z,102936.41
2023-05-19T05:43:19.134Z,102928.47
2023-05-19T05:45:45.642Z,102945.53
2023-05-19T05:48:12.424Z,102943.13
2023-05-19T05:50:39.207Z,102945.94
2023-05-19T05:53:07.302Z,102943.28
2023-05-19T05:55:34.447Z,102941.94
2023-05-19T05:58:02.278Z,102940.53
2023-05-19T06:00:29.888Z,102937.78
2023-05-19T06:02:57.160Z,102949.16
2023-05-19T06:05:25.048Z,102936.88
2023-05-19T06:07:51.532Z,102932.22
2023-05-19T06:10:18.019Z,102933.75
2023-05-19T06:12:44.705Z,102942.22
2023-05-19T06:15:11.267Z,102936.63
2023-05-19T06:17:37.923Z,102938.25
2023-05-19T06:20:05.918Z,102944.94
2023-05-19T06:22:32.727Z,102942.16
2023-05-19T06:24:59.370Z,102943.88
2023-05-19T06:27:26.131Z,102937.25
2023-05-19T06:29:53.130Z,102934.34
2023-05-19T06:32:19.864Z,102928.09
2023-05-19T06:34:46.508Z,102941.69
2023-05-19T06:37:14.877Z,102942.41
2023-05-19T06:39:41.432Z,102929.13
2023-05-19T06:42:07.919Z,102930.13
2023-05-19T06:44:34.384Z,102934.34
2023-05-19T06:47:00.889Z,102927.91
2023-05-19T06:49:29.415Z,102926.50
2023-05-19T06:51:55.957Z,102931.00
2023-05-19T06:54:22.505Z,102935.50
2023-05-19T06:56:49.129Z,102935.19
2023-05-19T06:59:16.193Z,102936.84
2023-05-19T07:01:42.686Z,102940.50
2023-05-19T07:04:09.220Z,102938.09
2023-05-19T07:06:35.747Z,102933.56
2023-05-19T07:09:05.159Z,102942.50
2023-05-19T07:11:32.316Z,102940.13
2023-05-19T07:13:58.802Z,102932.53
2023-05-19T07:16:25.425Z,102932.94
2023-05-19T07:18:52.080Z,102930.56
2023-05-19T07:21:18.656Z,102922.84
2023-05-19T07:23:45.136Z,102923.06
2023-05-19T07:26:11.652Z,102925.44
2023-05-19T07:28:39.862Z,102925.47
2023-05-19T07:31:08.091Z,102922.88
2023-05-19T07:33:34.642Z,102923.50
2023-05-19T07:36:01.180Z,102925.47
2023-05-19T07:38:28.759Z,102935.25
2023-05-19T07:40:55.430Z,102937.00
2023-05-19T07:43:22.022Z,102933.19
2023-05-19T07:45:48.540Z,102927.41
2023-05-19T07:48:15.195Z,102928.78
2023-05-19T07:50:41.710Z,102921.59
2023-05-19T07:53:08.266Z,102919.38
2023-05-19T07:55:34.863Z,102911.44
2023-05-19T07:58:01.424Z,102921.56
2023-05-19T08:00:28.380Z,102910.69
2023-05-19T08:02:56.958Z,102913.91
2023-05-19T08:05:23.970Z,102907.41
2023-05-19T08:07:50.500Z,102897.13
2023-05-19T08:10:17.147Z,102898.75
2023-05-19T08:12:44.173Z,102904.69
2023-05-19T08:15:11.798Z,102902.13
2023-05-19T08:17:38.429Z,102902.84
2023-05-19T08:20:08.202Z,102888.53
2023-05-19T08:22:34.743Z,102890.38
2023-05-19T08:25:01.475Z,102889.91
2023-05-19T08:27:28.035Z,102899.41
2023-05-19T08:29:55.318Z,102876.16
2023-05-19T08:32:21.916Z,102889.56
2023-05-19T08:34:48.694Z,102876.50
2023-05-19T08:37:15.373Z,102882.03
2023-05-19T08:39:41.923Z,102875.19
2023-05-19T08:42:09.926Z,102872.84
2023-05-19T08:44:40.141Z,102869.47
2023-05-19T08:47:12.791Z,102867.78
2023-05-19T08:49:51.148Z,102873.44
2023-05-19T08:52:47.240Z,102861.34
2023-05-19T08:55:38.220Z,102858.31
2023-05-19T08:58:04.997Z,102841.72
2023-05-19T09:00:32.746Z,102844.84
2023-05-19T09:03:16.903Z,102849.69
2023-05-19T09:05:46.549Z,102842.34
2023-05-19T09:08:13.732Z,102838.47
2023-05-19T09:10:40.263Z,102839.47
2023-05-19T09:13:06.956Z,102839.53
2023-05-19T09:15:36.874Z,102834.34
2023-05-19T09:18:14.110Z,102837.81
2023-05-19T09:20:42.381Z,102845.84
2023-05-19T09:23:16.798Z,102839.47
2023-05-19T09:25:50.790Z,102834.75
2023-05-19T09:28:28.084Z,102836.38
2023-05-19T09:31:05.517Z,102839.50
2023-05-19T09:33:36.875Z,102840.59
2023-05-19T09:36:08.592Z,102846.75
2023-05-19T09:38:36.359Z,102831.13
2023-05-19T09:41:03.320Z,102838.47
2023-05-19T09:43:30.961Z,102843.00
2023-05-19T09:46:01.753Z,102829.75
2023-05-19T09:48:28.386Z,102830.34
2023-05-19T09:50:55.016Z,102839.47
2023-05-19T09:53:22.273Z,102831.91
2023-05-19T09:55:49.927Z,102837.03
2023-05-19T09:58:18.485Z,102828.31
2023-05-19T10:00:47.024Z,102817.53
2023-05-19T10:03:14.733Z,102824.44
2023-05-19T10:05:42.040Z,102827.09
2023-05-19T10:08:10.448Z,102827.41
2023-05-19T10:10:38.269Z,102816.56
2023-05-19T10:13:06.249Z,102827.88
2023-05-19T10:15:36.088Z,102824.31
2023-05-19T10:18:07.043Z,102820.56
2023-05-19T10:20:35.304Z,102804.78
2023-05-19T10:23:03.179Z,102815.28
2023-05-19T10:25:34.810Z,102815.44
2023-05-19T10:28:07.923Z,102805.88
2023-05-19T10:30:41.688Z,102809.97
2023-05-19T10:33:13.069Z,102794.88
2023-05-19T10:36:28.442Z,102797.84
2023-05-19T10:39:07.770Z,102794.44
2023-05-19T10:41:53.737Z,102797.31
2023-05-19T10:44:44.977Z,102797.59
2023-05-19T10:47:12.443Z,102796.03
2023-05-19T10:49:39.639Z,102788.41
2023-05-19T10:52:23.470Z,102788.72
2023-05-19T10:54:50.082Z,102785.16
2023-05-19T10:57:18.076Z,102782.59
2023-05-19T10:59:45.208Z,102782.94
2023-05-19T11:02:41.568Z,102787.75
2023-05-19T11:05:09.358Z,102771.47
2023-05-19T11:07:36.095Z,102774.66
2023-05-19T11:10:07.593Z,102775.75
2023-05-19T11:12:43.101Z,102770.75
2023-05-19T11:15:14.960Z,102769.19
2023-05-19T11:17:42.823Z,102772.13
2023-05-19T11:20:22.529Z,102773.38
2023-05-19T11:23:08.159Z,102768.38
2023-05-19T11:25:46.999Z,102766.34
2023-05-19T11:28:19.520Z,102771.00
2023-05-19T11:30:50.610Z,102765.16
2023-05-19T11:33:20.909Z,102770.28
2023-05-19T11:35:49.801Z,102765.53
2023-05-19T11:38:18.550Z,102760.28
2023-05-19T11:40:45.322Z,102759.19
2023-05-19T11:43:12.007Z,102763.78
2023-05-19T11:45:39.090Z,102758.13
2023-05-19T11:48:07.026Z,102753.19
2023-05-19T11:50:33.777Z,102750.88
2023-05-19T11:53:01.493Z,102756.59
2023-05-19T11:55:28.975Z,102749.34
2023-05-19T11:58:03.994Z,102747.16
2023-05-19T12:00:37.615Z,102746.50
2023-05-19T12:03:04.386Z,102737.03
2023-05-19T12:05:34.445Z,102738.50
2023-05-19T12:08:02.797Z,102739.41
2023-05-19T12:10:31.400Z,102750.69
2023-05-19T12:12:58.575Z,102748.63
2023-05-19T12:15:25.816Z,102743.91
2023-05-19T12:17:58.322Z,102747.41
2023-05-19T12:20:25.813Z,102738.94
2023-05-19T12:22:53.205Z,102744.66
2023-05-19T12:25:20.466Z,102735.06
2023-05-19T12:27:48.722Z,102731.97
2023-05-19T12:30:16.397Z,102734.72
2023-05-19T12:32:44.024Z,102740.69
2023-05-19T12:35:10.968Z,102734.66
2023-05-19T12:37:41.723Z,102719.31
2023-05-19T12:40:10.016Z,102726.97
2023-05-19T12:42:37.772Z,102715.16
2023-05-19T12:45:04.981Z,102713.34
2023-05-19T12:47:35.866Z,102720.56
2023-05-19T12:50:06.377Z,102707.03
2023-05-19T12:52:35.488Z,102722.72
2023-05-19T12:55:07.227Z,102711.44
2023-05-19T12:57:38.057Z,102714.41
2023-05-19T13:00:11.683Z,102712.66
2023-05-19T13:02:55.901Z,102703.88
2023-05-19T13:05:23.051Z,102700.97
2023-05-19T13:07:55.706Z,102712.50
2023-05-19T13:10:22.504Z,102694.03
2023-05-19T13:12:48.990Z,102692.63
2023-05-19T13:15:15.655Z,102703.81
2023-05-19T13:17:42.856Z,102707.38
2023-05-19T13:20:09.665Z,102713.31
2023-05-19T13:22:36.160Z,102703.50
2023-05-19T13:25:02.641Z,102708.00
2023-05-19T13:27:29.324Z,102697.63
2023-05-19T13:29:55.889Z,102690.41
2023-05-19T13:32:22.397Z,102686.94
2023-05-19T13:34:48.948Z,102681.69
2023-05-19T13:37:15.522Z,102680.03
2023-05-19T13:39:42.174Z,102672.84
2023-05-19T13:42:08.704Z,102672.81
2023-05-19T13:44:35.311Z,102679.38
2023-05-19T13:47:01.904Z,102655.47
2023-05-19T13:49:28.412Z,102664.78
2023-05-19T13:51:58.334Z,102666.31
2023-05-19T13:54:24.853Z,102661.09
2023-05-19T13:56:51.418Z,102659.81
2023-05-19T13:59:17.928Z,102659.31
2023-05-19T14:01:45.420Z,102658.34
2023-05-19T14:04:12.187Z,102661.31
2023-05-19T14:06:38.908Z,102667.84
2023-05-19T14:09:09.371Z,102666.19
2023-05-19T14:11:35.971Z,102654.66
2023-05-19T14:14:05.669Z,102646.22
2023-05-19T14:16:32.611Z,102657.59
2023-05-19T14:18:59.150Z,102660.91
2023-05-19T14:21:25.925Z,102647.34
2023-05-19T14:23:52.432Z,102646.69
2023-05-19T14:26:19.748Z,102655.75
2023-05-19T14:28:46.252Z,102634.59
2023-05-19T14:31:13.704Z,102631.72
2023-05-19T14:33:41.273Z,102632.03
2023-05-19T14:36:08.827Z,102636.22
2023-05-19T14:38:35.919Z,102644.09
2023-05-19T14:41:03.165Z,102643.06
2023-05-19T14:43:29.754Z,102629.56
2023-05-19T14:45:57.041Z,102625.81
2023-05-19T14:48:23.586Z,102627.47
2023-05-19T14:50:50.290Z,102625.31
2023-05-19T14:53:16.945Z,102618.34
2023-05-19T14:55:43.734Z,102620.66
2023-05-19T14:58:23.632Z,102616.50
2023-05-19T15:00:54.602Z,102621.22
2023-05-19T15:03:23.123Z,102618.63
2023-05-19T15:05:49.776Z,102614.63
2023-05-19T15:08:16.628Z,102612.09
2023-05-19T15:10:43.193Z,102612.34
2023-05-19T15:13:09.750Z,102616.09
2023-05-19T15:15:36.297Z,102615.31
2023-05-19T15:18:02.795Z,102605.09
2023-05-19T15:20:29.728Z,102602.47
2023-05-19T15:22:56.275Z,102605.53
2023-05-19T15:25:22.788Z,102601.00
2023-05-19T15:27:49.360Z,102597.00
2023-05-19T15:30:16.240Z,102591.34
2023-05-19T15:32:42.770Z,102597.72
2023-05-19T15:35:09.435Z,102597.03
2023-05-19T15:37:35.945Z,102600.09
2023-05-19T15:40:02.522Z,102614.03
2023-05-19T15:42:29.051Z,102603.41
2023-05-19T15:44:55.652Z,102590.25
2023-05-19T15:47:28.753Z,102590.78
2023-05-19T15:49:55.402Z,102595.34
2023-05-19T15:52:21.984Z,102588.78
2023-05-19T15:54:48.903Z,102592.56
2023-05-19T15:57:15.475Z,102591.31
2023-05-19T15:59:42.028Z,102585.88
2023-05-19T16:02:08.730Z,102580.31
2023-05-19T16:04:35.363Z,102585.94
2023-05-19T16:07:01.832Z,102583.84
2023-05-19T16:09:28.328Z,102578.84
2023-05-19T16:11:54.816Z,102581.78
2023-05-19T16:14:21.366Z,102577.59
2023-05-19T16:16:47.916Z,102585.84
2023-05-19T16:19:14.497Z,102568.84
2023-05-19T16:21:41.171Z,102571.91
2023-05-19T16:24:07.677Z,102566.31
2023-05-19T16:26:34.516Z,102570.06
2023-05-19T16:29:01.057Z,102570.00
2023-05-19T16:31:27.774Z,102559.78
2023-05-19T16:33:54.300Z,102566.66
2023-05-19T16:36:22.753Z,102562.91
2023-05-19T16:38:49.330Z,102563.06
2023-05-19T16:41:15.949Z,102558.03
2023-05-19T16:43:42.525Z,102569.44
2023-05-19T16:46:11.992Z,102563.63
2023-05-19T16:48:38.780Z,102567.25
2023-05-19T16:51:05.380Z,102566.94
2023-05-19T16:53:31.974Z,102571.53
2023-05-19T16:56:01.415Z,102576.66
2023-05-19T16:58:28.921Z,102568.03
2023-05-19T17:00:57.814Z,102570.72
2023-05-19T17:03:24.500Z,102563.44
2023-05-19T17:05:51.253Z,102572.56
2023-05-19T17:08:17.889Z,102562.91
2023-05-19T17:10:44.882Z,102557.69
2023-05-19T17:13:11.794Z,102573.59
2023-05-19T17:15:38.367Z,102570.97
2023-05-19T17:18:05.807Z,102573.41
2023-05-19T17:20:32.582Z,102577.59
2023-05-19T17:22:59.252Z,102571.28
2023-05-19T17:25:25.854Z,102582.22
2023-05-19T17:27:52.461Z,102577.06
2023-05-19T17:30:19.015Z,102572.47
2023-05-19T17:32:45.839Z,102581.06
2023-05-19T17:35:12.478Z,102569.59
2023-05-19T17:37:39.073Z,102567.38
2023-05-19T17:40:06.319Z,102569.69
2023-05-19T17:42:32.901Z,102579.34
2023-05-19T17:44:59.407Z,102569.34
2023-05-19T17:47:26.104Z,102578.75
2023-05-19T17:49:55.515Z,102576.56
2023-05-19T17:52:22.398Z,102579.63
2023-05-19T17:54:49.212Z,102579.59
2023-05-19T17:57:17.519Z,102575.78
2023-05-19T17:59:44.396Z,102593.34
2023-05-19T18:02:11.928Z,102588.56
2023-05-19T18:04:38.847Z,102588.56
2023-05-19T18:07:06.989Z,102578.81
2023-05-19T18:09:37.298Z,102581.88
2023-05-19T18:12:05.361Z,102593.66
2023-05-19T18:14:31.881Z,102578.09
2023-05-19T18:16:58.376Z,102593.53
2023-05-19T18:19:24.964Z,102589.41
2023-05-19T18:21:51.501Z,102596.50
2023-05-19T18:24:18.000Z,102594.56
2023-05-19T18:26:44.533Z,102601.22
2023-05-19T18:29:11.486Z,102590.09
2023-05-19T18:31:38.337Z,102581.50
2023-05-19T18:34:04.984Z,102598.91
2023-05-19T18:36:31.738Z,102597.69
2023-05-19T18:39:01.948Z,102601.09
2023-05-19T18:41:28.495Z,102607.41
2023-05-19T18:43:55.026Z,102607.41
2023-05-19T18:46:21.619Z,102607.13
2023-05-19T18:48:50.539Z,102610.25
2023-05-19T18:51:18.678Z,102604.22
2023-05-19T18:53:47.031Z,102610.81
2023-05-19T18:56:15.212Z,102606.53
2023-05-19T18:58:41.783Z,102607.25
2023-05-19T19:01:08.524Z,102611.59
2023-05-19T19:03:35.049Z,102611.34
2023-05-19T19:06:01.583Z,102621.66
2023-05-19T19:08:28.143Z,102618.56
2023-05-19T19:10:59.177Z,102624.78
2023-05-19T19:13:25.699Z,102631.72
2023-05-19T19:15:52.232Z,102625.84
2023-05-19T19:18:18.793Z,102627.75
2023-05-19T19:20:45.393Z,102632.16
2023-05-19T19:23:11.918Z,102624.97
2023-05-19T19:25:38.515Z,102628.38
2023-05-19T19:28:05.093Z,102638.41
2023-05-19T19:30:32.003Z,102637.75
2023-05-19T19:32:59.499Z,102645.00
2023-05-19T19:35:26.287Z,102636.81
2023-05-19T19:37:52.846Z,102632.34
2023-05-19T19:40:19.438Z,102647.28
2023-05-19T19:42:45.995Z,102651.97
2023-05-19T19:45:15.420Z,102650.31
2023-05-19T19:47:42.274Z,102658.47
2023-05-19T19:50:09.722Z,102669.50
2023-05-19T19:52:36.808Z,102661.66
2023-05-19T19:55:03.567Z,102659.50
2023-05-19T19:57:31.659Z,102659.84
2023-05-19T20:00:04.615Z,102668.41
2023-05-19T20:02:31.326Z,102682.28
2023-05-19T20:04:57.865Z,102678.59
2023-05-19T20:07:24.436Z,102681.28
2023-05-19T20:09:52.709Z,102676.13
2023-05-19T20:12:19.191Z,102679.47
2023-05-19T20:14:46.142Z,102677.94
2023-05-19T20:17:12.637Z,102688.31
2023-05-19T20:19:39.124Z,102688.16
2023-05-19T20:22:05.613Z,102703.34
2023-05-19T20:24:32.114Z,102694.16
2023-05-19T20:26:58.622Z,102707.19
2023-05-19T20:29:25.138Z,102705.00
2023-05-19T20:31:51.635Z,102699.97
2023-05-19T20:34:18.139Z,102694.63
2023-05-19T20:36:44.735Z,102693.94
2023-05-19T20:39:11.294Z,102702.16
2023-05-19T20:41:37.822Z,102704.91
2023-05-19T20:44:04.518Z,102709.94
2023-05-19T20:46:31.122Z,102712.44
2023-05-19T20:48:57.744Z,102698.72
2023-05-19T20:51:25.224Z,102715.59
2023-05-19T20:53:52.160Z,102710.41
2023-05-19T20:56:19.648Z,102712.91
2023-05-19T20:58:46.278Z,102710.56
2023-05-19T21:01:12.830Z,102707.34
2023-05-19T21:03:39.420Z,102720.88
2023-05-19T21:06:05.983Z,102709.19
2023-05-19T21:08:32.493Z,102702.13
2023-05-19T21:10:59.348Z,102704.63
2023-05-19T21:13:25.963Z,102718.50
2023-05-19T21:15:52.483Z,102717.28
2023-05-19T21:18:19.029Z,102715.78
2023-05-19T21:20:45.531Z,102719.09
2023-05-19T21:23:12.279Z,102722.09
2023-05-19T21:25:39.680Z,102729.09
2023-05-19T21:28:06.421Z,102726.22
2023-05-19T21:30:33.232Z,102722.38
2023-05-19T21:32:59.874Z,102718.03
2023-05-19T21:35:26.467Z,102735.34
2023-05-19T21:37:52.942Z,102731.31
2023-05-19T21:40:19.484Z,102740.00
2023-05-19T21:42:46.188Z,102737.66
2023-05-19T21:45:12.670Z,102747.97
2023-05-19T21:47:39.508Z,102739.28
2023-05-19T21:50:06.785Z,102733.72
2023-05-19T21:52:33.303Z,102740.72
2023-05-19T21:54:59.786Z,102746.91
2023-05-19T21:57:26.319Z,102737.88
2023-05-19T21:59:52.783Z,102744.50
2023-05-19T22:02:19.310Z,102755.78
2023-05-19T22:04:46.132Z,102743.59
2023-05-19T22:07:12.659Z,102751.09
2023-05-19T22:09:39.197Z,102737.06
2023-05-19T22:12:06.487Z,102738.72
2023-05-19T22:14:33.005Z,102750.09
2023-05-19T22:16:59.545Z,102738.19
2023-05-19T22:19:26.287Z,102737.09
2023-05-19T22:22:01.810Z,102746.38
2023-05-19T22:24:32.637Z,102731.25
2023-05-19T22:26:59.213Z,102736.72
2023-05-19T22:29:25.713Z,102736.91
2023-05-19T22:31:52.257Z,102749.53
2023-05-19T22:34:18.814Z,102752.13
2023-05-19T22:36:46.248Z,102751.44
2023-05-19T22:39:12.766Z,102750.09
2023-05-19T22:41:40.172Z,102735.31
2023-05-19T22:44:06.991Z,102749.50
2023-05-19T22:46:34.214Z,102752.16
2023-05-19T22:49:00.960Z,102752.06
2023-05-19T22:51:27.592Z,102747.88
2023-05-19T22:53:54.104Z,102742.31
2023-05-19T22:56:20.937Z,102740.94
2023-05-19T22:58:47.477Z,102752.50
2023-05-19T23:01:13.988Z,102752.94
2023-05-19T23:03:40.537Z,102756.59
2023-05-19T23:06:07.034Z,102747.22
2023-05-19T23:08:33.494Z,102751.34
2023-05-19T23:11:01.209Z,102749.78
2023-05-19T23:13:27.977Z,102746.91
2023-05-19T23:15:54.483Z,102736.66
2023-05-19T23:18:20.981Z,102744.97
2023-05-19T23:20:47.644Z,102749.34
2023-05-19T23:23:14.288Z,102751.03
2023-05-19T23:25:40.867Z,102750.63
2023-05-19T23:28:10.141Z,102751.06
2023-05-19T23:30:38.037Z,102754.19
2023-05-19T23:33:04.527Z,102739.78
2023-05-19T23:35:31.154Z,102748.06
2023-05-19T23:37:57.630Z,102739.78
2023-05-19T23:40:24.142Z,102742.72
2023-05-19T23:42:50.619Z,102730.72
2023-05-19T23:45:17.296Z,102750.16
2023-05-19T23:47:43.793Z,102747.66
2023-05-19T23:50:10.658Z,102746.41
2023-05-19T23:52:37.149Z,102741.53
2023-05-19T23:55:03.961Z,102739.28
2023-05-19T23:57:30.473Z,102746.47
2023-05-19T23:59:56.971Z,102754.44
